Time;durP1;ratioP1;P1;durP2;ratioP2;P2;SDS_P1;SDS_P2;PMS_P1;PMS_P2;Temp;Humidity;BMP_temperature;BMP_pressure;BME280_temperature;BME280_humidity;BME280_pressure;Samples;Min_cycle;Max_cycle;Signal;HPM_P1;HPM_P2
2021/05/29 00:01:01;;;;;;;5.13;3.65;;;;;;;15.73;55.79;102585.34;5055797;28;20025;-79
2021/05/29 00:03:28;;;;;;;3.88;3.30;;;;;;;15.71;56.14;102589.84;5055700;28;20472;-79
2021/05/29 00:05:54;;;;;;;4.65;3.60;;;;;;;15.69;56.31;102581.84;5055679;28;20029;-79
2021/05/29 00:08:22;;;;;;;6.30;4.40;;;;;;;15.67;56.31;102578.28;5055209;28;20017;-79
2021/05/29 00:10:53;;;;;;;4.80;4.00;;;;;;;15.65;56.26;102588.09;5055278;28;20427;-79
2021/05/29 00:13:21;;;;;;;5.68;4.13;;;;;;;15.59;56.42;102588.19;5055397;28;20036;-79
2021/05/29 00:15:49;;;;;;;4.57;3.83;;;;;;;15.57;56.47;102592.69;5055591;28;20419;-79
2021/05/29 00:18:16;;;;;;;6.10;3.75;;;;;;;15.52;56.41;102588.28;5055449;28;20431;-80
2021/05/29 00:20:43;;;;;;;4.47;3.97;;;;;;;15.49;56.38;102591.00;5055631;28;20063;-79
2021/05/29 00:23:11;;;;;;;7.38;4.53;;;;;;;15.45;56.74;102596.38;5055883;28;20060;-79
2021/05/29 00:25:38;;;;;;;5.20;4.47;;;;;;;15.39;56.80;102597.38;5055497;28;20044;-79
2021/05/29 00:28:05;;;;;;;6.55;4.70;;;;;;;15.39;56.70;102599.13;5055310;28;20029;-80
2021/05/29 00:30:32;;;;;;;21.23;5.47;;;;;;;15.35;56.63;102595.59;5055021;28;20025;-79
2021/05/29 00:32:59;;;;;;;4.65;4.20;;;;;;;15.32;56.73;102598.34;5055420;28;20021;-80
2021/05/29 00:35:25;;;;;;;5.15;4.38;;;;;;;15.27;56.89;102595.72;5054652;28;20434;-79
2021/05/29 00:37:52;;;;;;;6.28;4.80;;;;;;;15.25;56.93;102599.31;5055400;28;20032;-79
2021/05/29 00:40:18;;;;;;;5.60;4.97;;;;;;;15.21;56.95;102590.44;5053933;28;20028;-79
2021/05/29 00:42:45;;;;;;;6.30;4.68;;;;;;;15.18;56.76;102599.38;5042052;28;20035;-79
2021/05/29 00:45:12;;;;;;;6.18;4.47;;;;;;;15.15;56.93;102601.19;5055164;28;20114;-79
2021/05/29 00:47:38;;;;;;;7.95;4.55;;;;;;;15.08;56.94;102600.38;5054694;28;20033;-80
2021/05/29 00:50:08;;;;;;;6.30;4.80;;;;;;;15.05;57.34;102597.72;5054538;28;20040;-80
2021/05/29 00:52:36;;;;;;;7.68;5.18;;;;;;;15.00;57.35;102599.56;5054662;28;20021;-79
2021/05/29 00:55:07;;;;;;;6.07;4.45;;;;;;;14.97;57.33;102596.94;5054521;28;20033;-79
2021/05/29 00:57:36;;;;;;;4.53;4.07;;;;;;;14.90;57.70;102600.56;5054319;28;20025;-79
2021/05/29 01:00:05;;;;;;;6.65;3.97;;;;;;;14.87;57.43;102607.69;5054622;28;20565;-80
2021/05/29 01:02:32;;;;;;;6.05;4.53;;;;;;;14.82;57.80;102604.19;5054319;28;20029;-79
2021/05/29 01:04:58;;;;;;;7.15;3.88;;;;;;;14.78;57.52;102602.47;5054531;28;20024;-80
2021/05/29 01:07:25;;;;;;;8.18;4.88;;;;;;;14.76;57.60;102603.38;5054393;28;20043;-80
2021/05/29 01:09:51;;;;;;;5.25;4.30;;;;;;;14.73;57.85;102604.28;5053494;28;20025;-80
2021/05/29 01:12:18;;;;;;;6.63;4.85;;;;;;;14.68;57.68;102603.44;5054035;28;20032;-80
2021/05/29 01:15:04;;;;;;;6.13;4.43;;;;;;;14.66;57.68;102605.25;5054445;28;20033;-79
2021/05/29 01:17:30;;;;;;;7.60;3.92;;;;;;;14.62;57.87;102607.00;5054223;28;20213;-80
2021/05/29 01:19:57;;;;;;;8.52;5.25;;;;;;;14.57;58.03;102607.03;5054587;28;20029;-79
2021/05/29 01:22:51;;;;;;;5.18;4.30;;;;;;;14.66;57.87;102605.25;5054254;28;20036;-80
2021/05/29 01:25:31;;;;;;;7.10;4.75;;;;;;;14.59;57.71;102607.03;5053912;28;20078;-79
2021/05/29 01:30:50;;;;;;;5.55;4.20;;;;;;;14.49;58.14;102608.00;5110924;27;20380;-80
2021/05/29 01:33:22;;;;;;;8.90;4.75;;;;;;;14.47;58.24;102607.16;5111140;28;20031;-79
2021/05/29 01:35:50;;;;;;;6.20;4.50;;;;;;;14.44;58.09;102605.38;5110591;28;20432;-80
2021/05/29 01:38:19;;;;;;;5.10;4.38;;;;;;;14.40;58.21;102600.97;5111043;28;20485;-80
2021/05/29 01:40:46;;;;;;;7.25;5.22;;;;;;;14.37;58.61;102606.34;5110259;28;20031;-79
2021/05/29 01:43:13;;;;;;;8.55;4.80;;;;;;;14.34;58.60;102604.59;5110373;28;20085;-80
2021/05/29 01:45:42;;;;;;;7.15;4.60;;;;;;;14.34;58.54;102614.34;5110523;28;20501;-79
2021/05/29 01:48:09;;;;;;;8.38;4.50;;;;;;;14.31;58.15;102606.38;5110735;28;20052;-79
2021/05/29 01:50:46;;;;;;;4.65;3.95;;;;;;;14.31;58.44;102615.25;5110317;28;20032;-79
2021/05/29 01:53:14;;;;;;;6.63;5.03;;;;;;;14.30;58.41;102616.16;5110458;28;20485;-79
2021/05/29 01:55:42;;;;;;;5.50;4.57;;;;;;;14.29;58.46;102609.03;5110139;28;20032;-79
2021/05/29 01:58:08;;;;;;;5.78;4.78;;;;;;;14.28;58.34;102606.38;5109153;28;20535;-80
2021/05/29 02:00:35;;;;;;;7.63;5.00;;;;;;;14.25;58.66;102615.28;5110015;28;20032;-79
2021/05/29 02:03:02;;;;;;;6.82;5.00;;;;;;;14.23;58.29;102614.41;5109936;28;20028;-80
2021/05/29 02:05:30;;;;;;;7.85;4.93;;;;;;;14.22;58.58;102618.88;5110523;28;20020;-80
2021/05/29 02:08:01;;;;;;;8.40;4.72;;;;;;;14.20;58.60;102628.66;5109924;28;20039;-79
2021/05/29 02:10:30;;;;;;;6.63;5.05;;;;;;;14.17;58.59;102622.47;5109978;28;20485;-80
2021/05/29 02:12:59;;;;;;;8.23;4.25;;;;;;;14.14;58.69;102625.16;5110099;28;20116;-80
2021/05/29 02:15:29;;;;;;;7.25;4.28;;;;;;;14.14;58.68;102619.81;5109893;28;20125;-80
2021/05/29 02:17:58;;;;;;;6.72;4.38;;;;;;;14.11;59.05;102626.06;5097108;28;20015;-79
2021/05/29 02:26:03;;;;;;;5.60;4.15;;;;;;;14.08;58.71;102621.63;5072433;28;20471;-80
2021/05/29 02:28:31;;;;;;;7.55;4.65;;;;;;;14.03;58.84;102623.44;5068856;28;20037;-79
2021/05/29 02:30:58;;;;;;;5.90;4.07;;;;;;;14.01;58.62;102619.03;5059158;28;20370;-79
2021/05/29 02:33:25;;;;;;;7.30;4.25;;;;;;;14.02;58.58;102626.13;5050084;28;20385;-79
2021/05/29 02:35:52;;;;;;;5.85;4.22;;;;;;;13.99;58.89;102626.13;5050355;28;20387;-80
2021/05/29 02:38:19;;;;;;;6.70;4.82;;;;;;;13.96;58.83;102627.03;5050003;28;20032;-79
2021/05/29 02:40:46;;;;;;;7.82;4.80;;;;;;;13.94;59.29;102625.28;5049972;28;20494;-79
2021/05/29 02:43:13;;;;;;;6.07;4.45;;;;;;;13.94;58.90;102634.13;5050537;28;20427;-79
2021/05/29 02:45:40;;;;;;;7.38;4.68;;;;;;;13.91;58.75;102623.50;5050012;28;20083;-80
2021/05/29 02:48:09;;;;;;;6.57;4.70;;;;;;;13.92;59.19;102619.97;5050348;28;20041;-80
2021/05/29 02:50:37;;;;;;;6.78;4.38;;;;;;;13.88;58.79;102628.84;5063704;22;20729;-79
2021/05/29 02:53:03;;;;;;;5.35;4.25;;;;;;;13.88;59.24;102628.84;5049494;28;20040;-79
2021/05/29 02:55:30;;;;;;;5.60;4.25;;;;;;;13.84;58.73;102632.41;5049881;28;20112;-79
2021/05/29 02:57:58;;;;;;;6.32;4.60;;;;;;;13.87;59.03;102633.28;5049533;28;20021;-79
2021/05/29 03:00:30;;;;;;;5.35;4.28;;;;;;;13.89;58.87;102639.50;5049780;28;20049;-79
2021/05/29 03:02:58;;;;;;;6.95;4.97;;;;;;;13.86;58.85;102635.97;5049396;28;20029;-79
2021/05/29 03:05:24;;;;;;;5.00;3.83;;;;;;;13.81;59.23;102636.00;5049278;28;20067;-80
2021/05/29 03:07:51;;;;;;;6.85;4.35;;;;;;;13.79;58.66;102629.78;5049382;28;20029;-80
2021/05/29 03:10:19;;;;;;;7.60;5.10;;;;;;;13.79;58.66;102640.44;5049410;28;20040;-79
2021/05/29 03:12:47;;;;;;;5.43;4.25;;;;;;;13.77;58.82;102634.25;5049434;28;20021;-79
2021/05/29 03:15:17;;;;;;;5.80;3.70;;;;;;;13.79;58.81;102639.56;5049560;28;20049;-80
2021/05/29 03:17:44;;;;;;;6.43;4.60;;;;;;;13.75;59.21;102639.56;5049400;28;20040;-80
2021/05/29 03:20:14;;;;;;;9.68;5.63;;;;;;;13.76;59.29;102640.47;5049086;28;20021;-79
2021/05/29 03:22:42;;;;;;;6.25;4.80;;;;;;;13.72;58.82;102644.00;5048859;28;20460;-80
2021/05/29 03:25:09;;;;;;;9.10;4.20;;;;;;;13.68;58.67;102643.16;5049007;28;20033;-80
2021/05/29 03:27:37;;;;;;;5.63;3.78;;;;;;;13.68;59.26;102647.59;5034981;28;20535;-79
2021/05/29 03:30:08;;;;;;;7.18;5.03;;;;;;;13.66;59.59;102654.72;5048616;28;20480;-80
2021/05/29 03:32:35;;;;;;;6.85;4.85;;;;;;;13.62;59.23;102645.84;5048502;28;20034;-80
2021/05/29 03:35:01;;;;;;;6.93;4.80;;;;;;;13.61;59.22;102652.06;5049156;28;20059;-80
2021/05/29 03:37:27;;;;;;;5.18;4.63;;;;;;;13.59;59.18;102653.84;5035369;28;20392;-80
2021/05/29 03:39:54;;;;;;;5.82;4.75;;;;;;;13.62;59.11;102647.59;5035549;28;20026;-79
2021/05/29 03:42:20;;;;;;;7.90;4.80;;;;;;;13.61;59.51;102645.84;5035386;28;20025;-80
2021/05/29 03:44:46;;;;;;;7.65;4.40;;;;;;;13.59;59.61;102646.75;5035434;28;20091;-80
2021/05/29 03:47:13;;;;;;;5.38;4.00;;;;;;;13.61;59.51;102651.16;5035534;28;20025;-80
2021/05/29 03:49:39;;;;;;;8.98;5.32;;;;;;;13.61;59.21;102652.06;5035305;28;20029;-79
2021/05/29 03:52:07;;;;;;;7.18;5.07;;;;;;;13.61;59.00;102651.16;5034862;28;20369;-79
2021/05/29 03:54:34;;;;;;;7.05;4.47;;;;;;;13.59;59.18;102653.84;5035538;28;20033;-80
2021/05/29 03:57:01;;;;;;;5.80;4.38;;;;;;;13.59;59.64;102649.41;5035343;28;20018;-79
2021/05/29 03:59:27;;;;;;;5.55;4.95;;;;;;;13.59;59.33;102649.41;5035191;28;20494;-80
2021/05/29 04:01:53;;;;;;;5.78;4.97;;;;;;;13.59;59.77;102648.50;5034928;28;20048;-80
2021/05/29 04:04:20;;;;;;;7.53;4.97;;;;;;;13.58;59.70;102655.63;5035215;28;20029;-79
2021/05/29 04:06:46;;;;;;;9.15;4.55;;;;;;;13.59;59.40;102656.50;5034980;28;20456;-80
2021/05/29 04:09:12;;;;;;;8.75;5.20;;;;;;;13.65;59.68;102652.94;5035171;28;20044;-79
2021/05/29 04:11:39;;;;;;;5.18;4.45;;;;;;;13.66;59.27;102655.59;5035011;28;20029;-80
2021/05/29 04:14:07;;;;;;;6.95;4.45;;;;;;;13.67;59.24;102656.47;5034816;28;20046;-80
2021/05/29 04:16:33;;;;;;;5.88;4.32;;;;;;;13.66;59.10;102650.25;5035033;28;20112;-79
2021/05/29 04:18:59;;;;;;;5.47;3.97;;;;;;;13.66;59.18;102650.25;5034820;28;20030;-80
2021/05/29 04:21:26;;;;;;;6.50;4.00;;;;;;;13.64;59.05;102651.16;5035194;28;20044;-79
2021/05/29 04:23:52;;;;;;;6.30;4.03;;;;;;;13.64;59.72;102652.03;5034651;28;20029;-80
2021/05/29 04:26:19;;;;;;;6.72;5.18;;;;;;;13.65;59.56;102644.94;5034787;28;20096;-80
2021/05/29 04:28:45;;;;;;;9.13;5.30;;;;;;;13.65;59.51;102652.94;5034693;28;20469;-79
2021/05/29 04:31:11;;;;;;;5.88;4.20;;;;;;;13.65;59.13;102652.94;5034719;28;20041;-80
2021/05/29 04:33:38;;;;;;;8.02;5.05;;;;;;;13.67;59.58;102661.78;5034673;28;20052;-80
2021/05/29 04:36:04;;;;;;;7.10;5.00;;;;;;;13.69;59.27;102655.56;5034552;28;20032;-80
2021/05/29 04:38:31;;;;;;;5.07;4.35;;;;;;;13.69;59.22;102662.69;5034738;28;20072;-80
2021/05/29 04:40:57;;;;;;;7.55;5.32;;;;;;;13.69;59.66;102662.69;5034372;28;20025;-80
2021/05/29 04:43:23;;;;;;;5.95;4.60;;;;;;;13.71;60.04;102661.78;5034253;28;20029;-80
2021/05/29 04:45:49;;;;;;;8.95;5.15;;;;;;;13.74;59.27;102663.53;5033132;28;20048;-79
2021/05/29 04:48:17;;;;;;;7.13;4.45;;;;;;;13.79;59.48;102671.53;5033279;28;20030;-80
2021/05/29 04:51:15;;;;;;;5.45;4.38;;;;;;;13.82;59.07;102667.06;5034346;28;20041;-80
2021/05/29 04:53:31;;;;;;;5.45;4.15;;;;;;;13.87;59.53;102675.06;5033923;28;20132;-80
2021/05/29 04:56:01;;;;;;;4.78;3.83;;;;;;;13.92;59.44;102681.25;5034342;28;20029;-79
2021/05/29 04:58:28;;;;;;;7.75;4.63;;;;;;;13.89;58.95;102676.81;5033840;28;20500;-80
2021/05/29 05:00:54;;;;;;;4.88;4.00;;;;;;;13.93;59.43;102687.44;5034254;28;20022;-80
2021/05/29 05:03:22;;;;;;;16.45;5.70;;;;;;;13.97;59.42;102687.44;5033820;28;20384;-80
2021/05/29 05:05:48;;;;;;;5.22;4.32;;;;;;;13.97;58.96;102679.44;5034111;28;20037;-79
2021/05/29 05:08:15;;;;;;;6.75;4.45;;;;;;;13.98;59.38;102689.22;5033926;28;20446;-80
2021/05/29 05:10:41;;;;;;;6.32;4.65;;;;;;;14.03;59.46;102700.72;5033955;28;20063;-80
2021/05/29 05:13:08;;;;;;;6.55;5.13;;;;;;;14.05;58.88;102690.06;5033795;28;20021;-80
2021/05/29 05:15:34;;;;;;;4.95;3.72;;;;;;;14.08;59.33;102700.69;5033699;28;20155;-80
2021/05/29 05:18:00;;;;;;;6.25;4.95;;;;;;;14.10;59.41;102704.25;5033951;28;20388;-80
2021/05/29 05:20:27;;;;;;;7.35;4.53;;;;;;;14.13;59.22;102698.91;5033081;28;20520;-79
2021/05/29 05:22:53;;;;;;;6.72;4.60;;;;;;;14.17;59.44;102706.00;5033278;28;20042;-80
2021/05/29 05:25:19;;;;;;;9.02;5.18;;;;;;;14.20;59.41;102705.97;5032739;28;20037;-78
2021/05/29 05:27:45;;;;;;;9.30;6.00;;;;;;;14.19;59.45;102714.88;5033608;28;20029;-79
2021/05/29 05:30:14;;;;;;;7.22;5.07;;;;;;;14.22;59.06;102708.63;5032964;28;20033;-80
2021/05/29 05:32:41;;;;;;;6.93;5.10;;;;;;;14.23;59.23;102711.28;5033084;28;20081;-80
2021/05/29 05:35:10;;;;;;;7.18;5.22;;;;;;;14.23;59.31;102715.72;5033423;28;20116;-80
2021/05/29 05:37:37;;;;;;;8.90;5.38;;;;;;;14.28;59.32;102715.69;5032368;28;20079;-80
2021/05/29 05:40:05;;;;;;;8.48;5.30;;;;;;;14.30;59.68;102717.47;5032904;28;20037;-79
2021/05/29 05:42:31;;;;;;;10.05;5.68;;;;;;;14.32;59.62;102722.81;5032572;28;20511;-80
2021/05/29 05:44:58;;;;;;;11.75;6.30;;;;;;;14.31;59.80;102726.38;5032971;28;20443;-80
2021/05/29 05:47:24;;;;;;;10.35;5.25;;;;;;;14.37;59.55;102729.00;5032758;28;20026;-80
2021/05/29 05:49:50;;;;;;;8.45;5.35;;;;;;;14.40;59.31;102723.63;5033600;28;20057;-81
2021/05/29 05:52:16;;;;;;;6.75;5.18;;;;;;;14.44;59.18;102725.38;5032818;28;20465;-80
2021/05/29 05:54:42;;;;;;;8.20;5.18;;;;;;;14.43;59.52;102734.31;5031946;28;20076;-80
2021/05/29 05:57:09;;;;;;;6.97;4.47;;;;;;;14.48;59.07;102729.81;5033356;28;20571;-81
2021/05/29 05:59:35;;;;;;;7.95;5.47;;;;;;;14.54;59.14;102729.78;5032823;28;20030;-81
2021/05/29 06:02:01;;;;;;;6.13;4.85;;;;;;;14.60;59.21;102733.31;5032764;28;20022;-82
2021/05/29 06:04:27;;;;;;;9.48;5.45;;;;;;;14.64;59.24;102732.38;5032758;28;20366;-81
2021/05/29 06:06:53;;;;;;;6.80;5.00;;;;;;;14.68;59.36;102729.72;5033004;28;20037;-81
2021/05/29 06:09:19;;;;;;;5.75;4.35;;;;;;;14.74;58.97;102734.09;5032437;28;20464;-81
2021/05/29 06:11:45;;;;;;;5.70;4.40;;;;;;;14.81;59.11;102743.84;5032293;28;20021;-81
2021/05/29 06:19:38;;;;;;;5.97;4.00;;;;;;;14.99;58.72;102744.59;5070046;28;20483;-81
2021/05/29 06:22:05;;;;;;;7.22;5.10;;;;;;;15.06;58.72;102749.00;5050412;28;20036;-81
2021/05/29 06:24:31;;;;;;;6.50;5.13;;;;;;;15.12;58.68;102746.28;5049664;28;20025;-81
2021/05/29 06:26:57;;;;;;;7.05;4.80;;;;;;;15.16;58.51;102741.78;5049779;28;20037;-81
2021/05/29 06:29:24;;;;;;;7.50;4.93;;;;;;;15.20;58.49;102744.44;5048192;28;20025;-81
2021/05/29 06:31:50;;;;;;;6.85;4.85;;;;;;;15.25;58.40;102747.03;5049498;28;20090;-81
2021/05/29 06:34:17;;;;;;;5.65;4.22;;;;;;;15.30;58.28;102744.34;5050090;28;20021;-80
2021/05/29 06:36:44;;;;;;;8.00;4.18;;;;;;;15.33;57.93;102749.66;5049477;28;20475;-82
2021/05/29 06:39:11;;;;;;;5.78;4.65;;;;;;;15.40;57.91;102754.03;5048301;28;20045;-82
2021/05/29 06:41:40;;;;;;;6.65;4.80;;;;;;;15.47;57.86;102753.06;5049796;28;20021;-82
2021/05/29 06:44:07;;;;;;;8.23;4.93;;;;;;;15.53;57.48;102762.81;5049503;28;20025;-82
2021/05/29 06:46:33;;;;;;;5.07;4.20;;;;;;;15.62;57.45;102765.38;5050222;28;20063;-82
2021/05/29 06:49:01;;;;;;;7.28;5.20;;;;;;;15.69;57.22;102767.09;5049836;28;20078;-82
2021/05/29 06:51:37;;;;;;;5.97;4.30;;;;;;;15.72;57.50;102763.50;5049635;28;20427;-82
2021/05/29 06:54:08;;;;;;;6.85;4.28;;;;;;;15.84;57.49;102763.41;5049562;28;20361;-82
2021/05/29 06:59:21;;;;;;;6.90;4.93;;;;;;;15.92;56.97;102767.78;5049050;28;20117;-82
2021/05/29 07:01:47;;;;;;;6.97;5.00;;;;;;;16.00;56.77;102773.94;5049367;28;20026;-82
2021/05/29 07:04:13;;;;;;;8.73;5.20;;;;;;;16.08;56.69;102768.50;5049463;28;20575;-82
2021/05/29 07:06:39;;;;;;;6.65;5.70;;;;;;;16.08;57.27;102766.69;5049374;28;20484;-82
2021/05/29 07:09:05;;;;;;;9.32;5.88;;;;;;;16.24;57.10;102766.50;5049383;28;20491;-81
2021/05/29 07:11:36;;;;;;;8.55;6.20;;;;;;;16.31;56.95;102769.06;5049156;28;20097;-82
2021/05/29 07:14:05;;;;;;;7.68;6.25;;;;;;;16.40;56.76;102773.41;5049494;28;20022;-81
2021/05/29 07:16:34;;;;;;;10.05;6.03;;;;;;;16.42;56.99;102766.22;5049272;28;20030;-82
2021/05/29 07:19:00;;;;;;;8.52;6.30;;;;;;;16.53;56.64;102771.44;5049178;28;20049;-82
2021/05/29 07:21:26;;;;;;;10.90;6.15;;;;;;;16.63;56.55;102773.06;5074023;22;20376;-81
2021/05/29 07:23:52;;;;;;;9.68;6.32;;;;;;;16.72;56.18;102774.72;5068998;28;20039;-82
2021/05/29 07:26:18;;;;;;;9.57;5.93;;;;;;;16.79;56.22;102770.19;5066401;28;20029;-81
2021/05/29 07:28:44;;;;;;;8.02;6.80;;;;;;;16.94;55.73;102771.78;5054888;28;20372;-81
2021/05/29 07:31:11;;;;;;;8.00;5.95;;;;;;;17.00;55.67;102770.78;5046003;28;20064;-81
2021/05/29 07:33:37;;;;;;;9.45;6.35;;;;;;;17.10;55.52;102769.72;5036071;28;20554;-81
2021/05/29 07:36:04;;;;;;;10.07;6.10;;;;;;;17.19;55.28;102774.91;5034608;28;20500;-81
2021/05/29 07:38:30;;;;;;;7.70;5.38;;;;;;;17.21;55.13;102772.22;5035900;28;20025;-82
2021/05/29 07:40:56;;;;;;;7.93;6.05;;;;;;;17.32;54.89;102775.63;5035807;28;20045;-81
2021/05/29 07:43:23;;;;;;;12.60;6.47;;;;;;;17.43;54.95;102773.63;5035740;28;20025;-81
2021/05/29 07:45:50;;;;;;;10.60;6.55;;;;;;;17.49;55.07;102782.47;5035738;28;20067;-82
2021/05/29 07:48:16;;;;;;;10.07;6.47;;;;;;;17.58;55.00;102775.13;5036589;28;20030;-82
2021/05/29 07:50:59;;;;;;;11.15;6.32;;;;;;;17.66;55.04;102782.13;5036375;28;20022;-81
2021/05/29 07:53:27;;;;;;;8.70;6.00;;;;;;;17.78;54.88;102785.47;5036340;28;20476;-81
2021/05/29 07:55:55;;;;;;;9.55;6.57;;;;;;;17.88;55.11;102782.59;5035911;28;20053;-82
2021/05/29 07:58:21;;;;;;;10.88;6.22;;;;;;;17.96;54.82;102791.44;5035522;28;20021;-81
2021/05/29 08:00:51;;;;;;;9.60;6.95;;;;;;;18.02;54.62;102783.25;5035373;28;20030;-82
2021/05/29 08:03:19;;;;;;;8.45;5.68;;;;;;;18.10;54.41;102786.66;5035658;28;20022;-81
2021/05/29 08:05:47;;;;;;;8.82;5.82;;;;;;;18.22;53.95;102790.00;5035922;28;20032;-82
2021/05/29 08:08:13;;;;;;;8.35;6.15;;;;;;;18.30;53.71;102792.53;5035679;28;20029;-82
2021/05/29 08:10:40;;;;;;;9.55;5.13;;;;;;;18.39;53.66;102795.91;5035159;28;20030;-82
2021/05/29 08:13:06;;;;;;;9.77;6.07;;;;;;;18.45;53.76;102791.31;5033973;28;20061;-82
2021/05/29 08:15:33;;;;;;;10.85;6.38;;;;;;;18.55;53.61;102790.19;5034794;28;20037;-82
2021/05/29 08:17:59;;;;;;;8.32;5.75;;;;;;;18.63;53.49;102801.63;5034700;28;20068;-81
2021/05/29 08:20:25;;;;;;;9.15;6.68;;;;;;;18.69;53.05;102796.13;5035119;28;20075;-82
2021/05/29 08:22:52;;;;;;;10.23;6.50;;;;;;;18.76;52.63;102796.84;5035625;28;20031;-82
2021/05/29 08:25:18;;;;;;;9.02;5.93;;;;;;;18.85;52.41;102795.75;5035438;28;20036;-82
2021/05/29 08:27:45;;;;;;;7.82;5.40;;;;;;;18.89;52.11;102800.13;5034528;28;20079;-81
2021/05/29 08:30:12;;;;;;;8.90;6.32;;;;;;;18.96;51.71;102799.09;5034378;28;20044;-81
2021/05/29 08:32:39;;;;;;;8.60;6.10;;;;;;;19.07;51.55;102797.03;5034546;28;20014;-82
2021/05/29 08:35:07;;;;;;;10.38;6.55;;;;;;;19.12;51.61;102804.13;5034676;28;20026;-82
2021/05/29 08:37:33;;;;;;;7.50;5.60;;;;;;;19.14;51.31;102807.63;5034305;28;20513;-81
2021/05/29 08:39:59;;;;;;;6.53;5.40;;;;;;;19.15;50.70;102798.66;5033457;28;20033;-82
2021/05/29 08:42:26;;;;;;;9.35;5.22;;;;;;;19.20;50.43;102803.00;5034730;28;20029;-82
2021/05/29 08:44:58;;;;;;;8.35;5.45;;;;;;;19.26;50.02;102811.81;5035133;28;20033;-82
2021/05/29 08:47:25;;;;;;;9.27;5.33;;;;;;;19.31;49.71;102808.06;5034315;28;20033;-82
2021/05/29 08:49:54;;;;;;;7.32;4.63;;;;;;;19.38;49.46;102817.75;5034585;28;20029;-82
2021/05/29 08:52:21;;;;;;;5.47;4.38;;;;;;;19.40;49.04;102815.03;5034083;28;20480;-82
2021/05/29 08:54:47;;;;;;;5.50;4.40;;;;;;;19.49;48.79;102809.44;5034074;28;20124;-81
2021/05/29 08:57:16;;;;;;;7.55;4.25;;;;;;;19.55;48.61;102808.34;5034505;28;20053;-82
2021/05/29 08:59:43;;;;;;;5.90;3.40;;;;;;;19.60;48.17;102809.16;5034279;28;20087;-82
2021/05/29 09:02:10;;;;;;;4.85;2.88;;;;;;;19.69;47.75;102806.19;5035254;28;20419;-82
2021/05/29 09:04:36;;;;;;;7.38;3.38;;;;;;;19.79;47.45;102812.22;5034120;28;20072;-82
2021/05/29 09:07:03;;;;;;;6.68;3.80;;;;;;;19.87;47.24;102820.09;5034779;28;20033;-80
2021/05/29 09:09:29;;;;;;;5.10;3.22;;;;;;;19.86;46.42;102818.31;5033755;28;20033;-80
2021/05/29 09:12:02;;;;;;;4.93;3.00;;;;;;;20.08;46.24;102810.53;5034069;28;20053;-80
2021/05/29 09:14:33;;;;;;;4.05;3.05;;;;;;;20.17;46.18;102812.06;5033941;28;20120;-80
2021/05/29 09:20:06;;;;;;;6.07;3.58;;;;;;;20.53;45.02;102812.78;5070498;28;20398;-81
2021/05/29 09:25:23;;;;;;;7.22;4.57;;;;;;;20.66;46.14;102815.09;5063673;27;20444;-80
2021/05/29 09:30:45;;;;;;;6.57;3.67;;;;;;;20.74;45.32;102818.47;5111877;27;20842;-82
2021/05/29 09:33:14;;;;;;;7.82;4.07;;;;;;;20.78;45.56;102824.63;5111419;28;20383;-81
2021/05/29 09:35:44;;;;;;;8.25;4.05;;;;;;;20.83;45.17;102817.28;5109355;28;20032;-81
2021/05/29 09:38:11;;;;;;;6.93;4.97;;;;;;;20.83;44.79;102817.28;5111420;28;20035;-81
2021/05/29 09:40:37;;;;;;;8.63;5.72;;;;;;;20.89;45.09;102817.09;5110669;28;20831;-81
2021/05/29 09:43:07;;;;;;;6.57;4.88;;;;;;;20.94;45.56;102825.91;5112004;28;20031;-81
2021/05/29 09:45:34;;;;;;;4.82;4.10;;;;;;;21.00;46.01;102820.31;5110840;28;20110;-80
2021/05/29 09:48:20;;;;;;;6.35;4.57;;;;;;;21.21;45.09;102823.25;5111021;28;20031;-80
2021/05/29 09:51:08;;;;;;;7.95;4.65;;;;;;;21.40;45.40;102819.94;5110332;28;20036;-80
2021/05/29 09:59:19;;;;;;;5.47;4.70;;;;;;;21.57;44.98;102822.94;5076205;27;20405;-80
2021/05/29 10:01:53;;;;;;;6.32;4.55;;;;;;;21.67;44.81;102823.50;5055924;28;20021;-80
2021/05/29 10:09:43;;;;;;;5.20;4.05;;;;;;;21.69;44.01;102818.06;5070474;28;20387;-81
2021/05/29 10:12:11;;;;;;;7.88;4.97;;;;;;;21.76;43.33;102830.41;5070865;28;20037;-81
2021/05/29 10:14:37;;;;;;;7.40;4.88;;;;;;;21.78;43.42;102828.50;5071119;28;20028;-81
2021/05/29 10:17:06;;;;;;;6.55;4.93;;;;;;;21.96;43.58;102822.44;5069523;28;20035;-81
2021/05/29 10:19:33;;;;;;;6.25;5.00;;;;;;;22.04;43.35;102829.38;5070908;28;20082;-81
2021/05/29 10:22:05;;;;;;;6.00;4.93;;;;;;;22.19;43.41;102833.31;5072126;28;20025;-81
2021/05/29 10:24:31;;;;;;;6.90;5.15;;;;;;;22.20;43.30;102830.56;5070530;28;20029;-79
2021/05/29 10:26:58;;;;;;;7.32;5.78;;;;;;;22.19;43.11;102831.50;5070529;28;20525;-80
2021/05/29 10:29:25;;;;;;;7.78;5.85;;;;;;;22.30;43.36;102826.56;5069807;28;20056;-80
2021/05/29 10:32:07;;;;;;;12.32;6.18;;;;;;;22.29;43.25;102834.72;5067815;28;20036;-80
2021/05/29 10:37:43;;;;;;;7.65;5.32;;;;;;;22.54;42.61;102828.41;5071373;28;20453;-80
2021/05/29 10:43:15;;;;;;;6.88;4.78;;;;;;;22.64;41.68;102834.34;5082896;27;20410;-80
2021/05/29 10:48:45;;;;;;;7.57;5.50;;;;;;;22.68;42.13;102830.56;5070696;28;20142;-82
2021/05/29 10:51:12;;;;;;;11.52;6.45;;;;;;;22.65;42.34;102833.41;5051347;28;20025;-79
2021/05/29 10:59:12;;;;;;;8.88;5.72;;;;;;;22.91;42.48;102819.72;5076735;27;20440;-81
2021/05/29 11:10:00;;;;;;;6.32;5.20;;;;;;;23.26;41.60;102816.53;5070514;28;20394;-81
2021/05/29 11:12:49;;;;;;;6.68;5.43;;;;;;;23.38;40.16;102823.25;5071318;28;20519;-82
2021/05/29 11:15:16;;;;;;;8.82;6.28;;;;;;;23.24;41.97;102819.31;5070962;28;20055;-82
2021/05/29 11:18:06;;;;;;;5.97;4.88;;;;;;;23.55;40.69;102812.56;5070685;28;20033;-81
2021/05/29 11:20:32;;;;;;;7.28;5.50;;;;;;;23.51;41.30;102815.47;5070340;28;20028;-82
2021/05/29 11:22:58;;;;;;;11.50;7.25;;;;;;;23.55;40.93;102823.41;5069990;28;20035;-81
2021/05/29 11:25:26;;;;;;;7.15;5.32;;;;;;;23.62;40.61;102817.72;5070746;28;20107;-81
2021/05/29 11:27:52;;;;;;;8.88;6.22;;;;;;;23.78;40.43;102818.78;5069652;28;20032;-82
2021/05/29 11:30:21;;;;;;;7.47;5.28;;;;;;;23.94;40.37;102820.81;5069819;28;20044;-82
2021/05/29 11:35:48;;;;;;;8.90;5.63;;;;;;;24.09;40.36;102812.00;5111034;27;20404;-81
2021/05/29 11:38:33;;;;;;;10.30;7.50;;;;;;;24.23;39.42;102806.81;5110950;28;20466;-81
2021/05/29 11:41:09;;;;;;;8.77;6.05;;;;;;;24.23;40.02;102805.94;5103084;28;20035;-80
2021/05/29 11:43:39;;;;;;;7.47;5.63;;;;;;;24.22;40.34;102807.78;5106381;28;20035;-80
2021/05/29 11:51:39;;;;;;;6.68;6.00;;;;;;;24.55;39.37;102809.84;5078154;27;20397;-81
2021/05/29 11:56:54;;;;;;;9.63;6.53;;;;;;;24.64;39.33;102813.94;5078529;27;20398;-82
2021/05/29 11:59:21;;;;;;;8.65;6.20;;;;;;;24.73;39.12;102811.75;5071087;28;20032;-81
2021/05/29 12:01:51;;;;;;;8.05;5.97;;;;;;;24.85;39.23;102806.59;5056483;28;20112;-81
2021/05/29 12:04:21;;;;;;;7.65;6.85;;;;;;;24.87;39.48;102814.66;5050506;28;20049;-81
2021/05/29 12:09:35;;;;;;;10.18;5.60;;;;;;;24.89;39.68;102803.75;5072103;27;20428;-80
2021/05/29 12:14:43;;;;;;;7.25;5.72;;;;;;;25.09;38.98;102805.47;5070819;28;20394;-82
2021/05/29 12:17:14;;;;;;;11.80;6.50;;;;;;;25.10;38.17;102807.22;5070771;28;20029;-82
2021/05/29 12:22:24;;;;;;;9.05;5.90;;;;;;;25.04;38.39;102811.13;5071414;28;20424;-79
2021/05/29 12:27:41;;;;;;;13.82;6.30;;;;;;;25.24;37.67;102809.22;5078159;27;20402;-79
2021/05/29 12:30:13;;;;;;;11.63;7.20;;;;;;;25.22;36.68;102806.56;5055940;28;20025;-79
2021/05/29 12:32:41;;;;;;;8.85;5.97;;;;;;;25.27;37.29;102806.34;5050905;28;20037;-80
2021/05/29 12:35:11;;;;;;;8.43;6.15;;;;;;;25.38;37.72;102811.25;5050316;28;20029;-80
2021/05/29 12:37:37;;;;;;;10.43;6.75;;;;;;;25.47;37.67;102816.19;5051318;28;20029;-80
2021/05/29 12:42:49;;;;;;;10.35;6.10;;;;;;;25.71;37.25;102805.91;5131478;27;20390;-81
2021/05/29 12:45:18;;;;;;;9.52;6.38;;;;;;;25.70;36.83;102803.28;5131432;28;20033;-81
2021/05/29 12:48:01;;;;;;;8.45;6.55;;;;;;;25.86;36.79;102797.88;5131842;28;20032;-81
2021/05/29 12:50:30;;;;;;;9.05;7.03;;;;;;;25.70;37.32;102804.13;5131314;28;20031;-81
2021/05/29 12:56:07;;;;;;;8.23;6.00;;;;;;;25.74;37.51;102805.72;5069696;27;2438259;-80